sensor_id;sensor_type;location;lat;lon;timestamp;P1;durP1;ratioP1;P2;durP2;ratioP2
2035;SDS011;23642;42.658;23.350;2022-09-29T00:01:17;81.60;;;76.57;;
2035;SDS011;23642;42.658;23.350;2022-09-29T00:03:45;79.90;;;74.67;;
2035;SDS011;23642;42.658;23.350;2022-09-29T00:06:13;79.23;;;74.03;;
2035;SDS011;23642;42.658;23.350;2022-09-29T00:08:41;78.97;;;73.87;;
2035;SDS011;23642;42.658;23.350;2022-09-29T00:11:08;82.10;;;76.60;;
2035;SDS011;23642;42.658;23.350;2022-09-29T00:13:37;79.87;;;74.67;;
2035;SDS011;23642;42.658;23.350;2022-09-29T00:16:04;78.37;;;73.30;;
2035;SDS011;23642;42.658;23.350;2022-09-29T00:18:31;80.33;;;74.60;;
2035;SDS011;23642;42.658;23.350;2022-09-29T00:21:01;78.60;;;73.43;;
2035;SDS011;23642;42.658;23.350;2022-09-29T00:23:31;77.70;;;72.33;;
2035;SDS011;23642;42.658;23.350;2022-09-29T00:26:02;78.50;;;73.50;;
2035;SDS011;23642;42.658;23.350;2022-09-29T00:28:33;81.43;;;76.10;;
2035;SDS011;23642;42.658;23.350;2022-09-29T00:31:02;80.77;;;75.47;;
2035;SDS011;23642;42.658;23.350;2022-09-29T00:33:30;81.47;;;76.07;;
2035;SDS011;23642;42.658;23.350;2022-09-29T00:35:58;82.63;;;77.13;;
2035;SDS011;23642;42.658;23.350;2022-09-29T00:38:29;83.30;;;77.90;;
2035;SDS011;23642;42.658;23.350;2022-09-29T00:40:57;82.97;;;77.47;;
2035;SDS011;23642;42.658;23.350;2022-09-29T00:43:44;82.43;;;77.23;;
2035;SDS011;23642;42.658;23.350;2022-09-29T00:46:16;82.40;;;77.10;;
2035;SDS011;23642;42.658;23.350;2022-09-29T00:48:46;79.33;;;73.80;;
2035;SDS011;23642;42.658;23.350;2022-09-29T00:51:15;81.50;;;76.20;;
2035;SDS011;23642;42.658;23.350;2022-09-29T00:53:44;83.90;;;78.00;;
2035;SDS011;23642;42.658;23.350;2022-09-29T00:56:14;80.50;;;75.50;;
2035;SDS011;23642;42.658;23.350;2022-09-29T00:58:44;81.80;;;76.30;;
2035;SDS011;23642;42.658;23.350;2022-09-29T01:01:19;80.40;;;75.00;;
2035;SDS011;23642;42.658;23.350;2022-09-29T01:03:46;80.47;;;75.30;;
2035;SDS011;23642;42.658;23.350;2022-09-29T01:06:20;79.20;;;74.20;;
2035;SDS011;23642;42.658;23.350;2022-09-29T01:08:52;78.77;;;73.67;;
2035;SDS011;23642;42.658;23.350;2022-09-29T01:11:25;77.50;;;72.30;;
2035;SDS011;23642;42.658;23.350;2022-09-29T01:13:52;80.43;;;74.90;;
2035;SDS011;23642;42.658;23.350;2022-09-29T01:16:21;80.93;;;75.53;;
2035;SDS011;23642;42.658;23.350;2022-09-29T01:18:48;80.10;;;74.30;;
2035;SDS011;23642;42.658;23.350;2022-09-29T01:21:19;79.07;;;73.83;;
2035;SDS011;23642;42.658;23.350;2022-09-29T01:24:03;78.10;;;72.90;;
2035;SDS011;23642;42.658;23.350;2022-09-29T01:30:01;77.23;;;72.00;;
2035;SDS011;23642;42.658;23.350;2022-09-29T01:35:37;74.17;;;69.20;;
2035;SDS011;23642;42.658;23.350;2022-09-29T01:38:17;73.23;;;68.03;;
2035;SDS011;23642;42.658;23.350;2022-09-29T01:40:57;71.63;;;66.70;;
2035;SDS011;23642;42.658;23.350;2022-09-29T01:43:32;70.10;;;65.40;;
2035;SDS011;23642;42.658;23.350;2022-09-29T01:46:03;69.27;;;64.37;;
2035;SDS011;23642;42.658;23.350;2022-09-29T01:48:37;71.80;;;66.93;;
2035;SDS011;23642;42.658;23.350;2022-09-29T01:51:08;70.07;;;65.13;;
2035;SDS011;23642;42.658;23.350;2022-09-29T01:53:40;70.67;;;65.90;;
2035;SDS011;23642;42.658;23.350;2022-09-29T01:56:10;71.10;;;66.30;;
2035;SDS011;23642;42.658;23.350;2022-09-29T01:58:41;69.43;;;64.50;;
2035;SDS011;23642;42.658;23.350;2022-09-29T02:01:15;70.00;;;65.30;;
2035;SDS011;23642;42.658;23.350;2022-09-29T02:03:47;71.60;;;66.30;;
2035;SDS011;23642;42.658;23.350;2022-09-29T02:06:18;69.53;;;64.60;;
2035;SDS011;23642;42.658;23.350;2022-09-29T02:08:50;66.83;;;62.43;;
2035;SDS011;23642;42.658;23.350;2022-09-29T02:11:19;66.37;;;61.30;;
2035;SDS011;23642;42.658;23.350;2022-09-29T02:13:51;68.87;;;63.97;;
2035;SDS011;23642;42.658;23.350;2022-09-29T02:16:27;66.40;;;61.60;;
2035;SDS011;23642;42.658;23.350;2022-09-29T02:18:57;67.13;;;62.37;;
2035;SDS011;23642;42.658;23.350;2022-09-29T02:21:31;67.93;;;63.03;;
2035;SDS011;23642;42.658;23.350;2022-09-29T02:23:58;66.73;;;62.20;;
2035;SDS011;23642;42.658;23.350;2022-09-29T02:26:27;66.93;;;62.43;;
2035;SDS011;23642;42.658;23.350;2022-09-29T02:28:58;68.53;;;63.83;;
2035;SDS011;23642;42.658;23.350;2022-09-29T02:31:27;68.67;;;63.10;;
2035;SDS011;23642;42.658;23.350;2022-09-29T02:33:53;67.10;;;62.50;;
2035;SDS011;23642;42.658;23.350;2022-09-29T02:36:25;66.63;;;61.90;;
2035;SDS011;23642;42.658;23.350;2022-09-29T02:39:00;64.23;;;60.03;;
2035;SDS011;23642;42.658;23.350;2022-09-29T02:41:33;67.37;;;62.40;;
2035;SDS011;23642;42.658;23.350;2022-09-29T02:47:12;66.40;;;61.70;;
2035;SDS011;23642;42.658;23.350;2022-09-29T02:50:02;66.40;;;61.90;;
2035;SDS011;23642;42.658;23.350;2022-09-29T02:52:48;65.43;;;60.80;;
2035;SDS011;23642;42.658;23.350;2022-09-29T02:55:22;64.40;;;59.97;;
2035;SDS011;23642;42.658;23.350;2022-09-29T02:57:58;63.00;;;58.40;;
2035;SDS011;23642;42.658;23.350;2022-09-29T03:00:29;65.77;;;60.73;;
2035;SDS011;23642;42.658;23.350;2022-09-29T03:02:57;63.70;;;58.83;;
2035;SDS011;23642;42.658;23.350;2022-09-29T03:05:24;64.40;;;59.47;;
2035;SDS011;23642;42.658;23.350;2022-09-29T03:07:52;65.40;;;60.10;;
2035;SDS011;23642;42.658;23.350;2022-09-29T03:10:19;65.60;;;60.40;;
2035;SDS011;23642;42.658;23.350;2022-09-29T03:12:47;64.23;;;59.20;;
2035;SDS011;23642;42.658;23.350;2022-09-29T03:15:13;62.70;;;57.90;;
2035;SDS011;23642;42.658;23.350;2022-09-29T03:17:42;62.30;;;58.00;;
2035;SDS011;23642;42.658;23.350;2022-09-29T03:20:10;62.97;;;58.50;;
2035;SDS011;23642;42.658;23.350;2022-09-29T03:22:36;63.50;;;59.27;;
2035;SDS011;23642;42.658;23.350;2022-09-29T03:25:05;64.00;;;59.60;;
2035;SDS011;23642;42.658;23.350;2022-09-29T03:27:32;63.80;;;59.43;;
2035;SDS011;23642;42.658;23.350;2022-09-29T03:30:00;65.37;;;60.87;;
2035;SDS011;23642;42.658;23.350;2022-09-29T03:32:28;66.93;;;61.80;;
2035;SDS011;23642;42.658;23.350;2022-09-29T03:34:54;65.47;;;60.50;;
2035;SDS011;23642;42.658;23.350;2022-09-29T03:37:21;65.60;;;61.10;;
2035;SDS011;23642;42.658;23.350;2022-09-29T03:39:48;67.63;;;63.03;;
2035;SDS011;23642;42.658;23.350;2022-09-29T03:42:17;69.37;;;64.63;;
2035;SDS011;23642;42.658;23.350;2022-09-29T03:44:46;68.03;;;62.87;;
2035;SDS011;23642;42.658;23.350;2022-09-29T03:47:14;68.20;;;62.97;;
2035;SDS011;23642;42.658;23.350;2022-09-29T03:49:41;69.07;;;64.37;;
2035;SDS011;23642;42.658;23.350;2022-09-29T03:52:08;65.90;;;61.07;;
2035;SDS011;23642;42.658;23.350;2022-09-29T03:54:35;63.97;;;59.27;;
2035;SDS011;23642;42.658;23.350;2022-09-29T03:57:02;65.60;;;60.60;;
2035;SDS011;23642;42.658;23.350;2022-09-29T03:59:31;66.87;;;62.00;;
2035;SDS011;23642;42.658;23.350;2022-09-29T04:02:00;65.40;;;60.80;;
2035;SDS011;23642;42.658;23.350;2022-09-29T04:04:27;64.40;;;59.80;;
2035;SDS011;23642;42.658;23.350;2022-09-29T04:06:54;64.70;;;60.20;;
2035;SDS011;23642;42.658;23.350;2022-09-29T04:09:20;65.37;;;61.00;;
2035;SDS011;23642;42.658;23.350;2022-09-29T04:11:47;65.17;;;60.57;;
2035;SDS011;23642;42.658;23.350;2022-09-29T04:14:14;64.53;;;60.23;;
2035;SDS011;23642;42.658;23.350;2022-09-29T04:16:43;66.23;;;61.73;;
2035;SDS011;23642;42.658;23.350;2022-09-29T04:19:10;64.80;;;60.33;;
2035;SDS011;23642;42.658;23.350;2022-09-29T04:21:37;65.50;;;61.00;;
2035;SDS011;23642;42.658;23.350;2022-09-29T04:24:04;65.77;;;60.77;;
2035;SDS011;23642;42.658;23.350;2022-09-29T04:26:32;65.80;;;60.37;;
2035;SDS011;23642;42.658;23.350;2022-09-29T04:28:59;65.07;;;59.97;;
2035;SDS011;23642;42.658;23.350;2022-09-29T04:31:26;63.70;;;59.10;;
2035;SDS011;23642;42.658;23.350;2022-09-29T04:33:55;63.57;;;59.17;;
2035;SDS011;23642;42.658;23.350;2022-09-29T04:36:22;67.43;;;62.03;;
2035;SDS011;23642;42.658;23.350;2022-09-29T04:38:49;63.47;;;58.97;;
2035;SDS011;23642;42.658;23.350;2022-09-29T04:41:17;63.30;;;58.97;;
2035;SDS011;23642;42.658;23.350;2022-09-29T04:43:47;64.67;;;58.90;;
2035;SDS011;23642;42.658;23.350;2022-09-29T04:46:17;63.60;;;59.20;;
2035;SDS011;23642;42.658;23.350;2022-09-29T04:48:44;63.93;;;59.13;;
2035;SDS011;23642;42.658;23.350;2022-09-29T04:51:12;65.33;;;60.83;;
2035;SDS011;23642;42.658;23.350;2022-09-29T04:53:40;63.90;;;59.30;;
2035;SDS011;23642;42.658;23.350;2022-09-29T04:56:07;63.73;;;59.53;;
2035;SDS011;23642;42.658;23.350;2022-09-29T04:58:34;65.30;;;60.70;;
2035;SDS011;23642;42.658;23.350;2022-09-29T05:01:08;71.77;;;65.20;;
2035;SDS011;23642;42.658;23.350;2022-09-29T05:03:37;67.23;;;62.00;;
2035;SDS011;23642;42.658;23.350;2022-09-29T05:06:04;67.90;;;61.60;;
2035;SDS011;23642;42.658;23.350;2022-09-29T05:08:34;72.17;;;66.00;;
2035;SDS011;23642;42.658;23.350;2022-09-29T05:11:02;71.40;;;65.83;;
2035;SDS011;23642;42.658;23.350;2022-09-29T05:13:33;73.23;;;67.80;;
2035;SDS011;23642;42.658;23.350;2022-09-29T05:16:01;71.77;;;66.57;;
2035;SDS011;23642;42.658;23.350;2022-09-29T05:18:31;68.97;;;64.47;;
2035;SDS011;23642;42.658;23.350;2022-09-29T05:21:01;71.80;;;66.90;;
2035;SDS011;23642;42.658;23.350;2022-09-29T05:23:28;74.90;;;69.40;;
2035;SDS011;23642;42.658;23.350;2022-09-29T05:26:01;71.73;;;65.83;;
2035;SDS011;23642;42.658;23.350;2022-09-29T05:28:30;72.83;;;67.17;;
2035;SDS011;23642;42.658;23.350;2022-09-29T05:31:01;74.63;;;69.07;;
2035;SDS011;23642;42.658;23.350;2022-09-29T05:33:29;79.37;;;73.10;;
2035;SDS011;23642;42.658;23.350;2022-09-29T05:35:57;76.87;;;71.17;;
2035;SDS011;23642;42.658;23.350;2022-09-29T05:38:25;82.10;;;76.30;;
2035;SDS011;23642;42.658;23.350;2022-09-29T05:40:52;81.37;;;75.57;;
2035;SDS011;23642;42.658;23.350;2022-09-29T05:43:21;80.37;;;74.47;;
2035;SDS011;23642;42.658;23.350;2022-09-29T05:45:48;81.90;;;76.13;;
2035;SDS011;23642;42.658;23.350;2022-09-29T05:48:15;84.17;;;77.97;;
2035;SDS011;23642;42.658;23.350;2022-09-29T05:50:43;87.33;;;81.17;;
2035;SDS011;23642;42.658;23.350;2022-09-29T05:53:12;83.23;;;77.13;;
2035;SDS011;23642;42.658;23.350;2022-09-29T05:55:40;84.50;;;78.37;;
2035;SDS011;23642;42.658;23.350;2022-09-29T05:58:07;84.80;;;78.80;;
2035;SDS011;23642;42.658;23.350;2022-09-29T06:00:35;87.13;;;80.67;;
2035;SDS011;23642;42.658;23.350;2022-09-29T06:03:04;86.50;;;80.53;;
2035;SDS011;23642;42.658;23.350;2022-09-29T06:05:32;88.20;;;81.97;;
2035;SDS011;23642;42.658;23.350;2022-09-29T06:08:04;89.33;;;83.23;;
2035;SDS011;23642;42.658;23.350;2022-09-29T06:10:34;88.63;;;82.23;;
2035;SDS011;23642;42.658;23.350;2022-09-29T06:13:01;91.83;;;84.80;;
2035;SDS011;23642;42.658;23.350;2022-09-29T06:15:28;92.43;;;85.83;;
2035;SDS011;23642;42.658;23.350;2022-09-29T06:18:01;89.40;;;82.80;;
2035;SDS011;23642;42.658;23.350;2022-09-29T06:20:36;92.80;;;86.40;;
2035;SDS011;23642;42.658;23.350;2022-09-29T06:23:08;91.40;;;85.30;;
2035;SDS011;23642;42.658;23.350;2022-09-29T06:25:41;91.17;;;84.70;;
2035;SDS011;23642;42.658;23.350;2022-09-29T06:28:16;91.53;;;84.90;;
2035;SDS011;23642;42.658;23.350;2022-09-29T06:30:51;93.63;;;87.33;;
2035;SDS011;23642;42.658;23.350;2022-09-29T06:33:27;91.27;;;84.97;;
2035;SDS011;23642;42.658;23.350;2022-09-29T06:36:09;94.37;;;87.27;;
2035;SDS011;23642;42.658;23.350;2022-09-29T06:38:58;94.63;;;87.83;;
2035;SDS011;23642;42.658;23.350;2022-09-29T06:41:25;94.67;;;87.90;;
2035;SDS011;23642;42.658;23.350;2022-09-29T06:43:55;92.97;;;86.67;;
2035;SDS011;23642;42.658;23.350;2022-09-29T06:46:23;96.73;;;89.73;;
2035;SDS011;23642;42.658;23.350;2022-09-29T06:48:53;93.73;;;87.40;;
2035;SDS011;23642;42.658;23.350;2022-09-29T06:51:21;95.70;;;89.03;;
2035;SDS011;23642;42.658;23.350;2022-09-29T06:53:55;97.83;;;91.27;;
2035;SDS011;23642;42.658;23.350;2022-09-29T06:56:22;98.33;;;91.23;;
2035;SDS011;23642;42.658;23.350;2022-09-29T06:58:49;100.73;;;93.20;;
2035;SDS011;23642;42.658;23.350;2022-09-29T07:01:17;96.00;;;89.70;;
2035;SDS011;23642;42.658;23.350;2022-09-29T07:03:43;99.70;;;92.33;;
2035;SDS011;23642;42.658;23.350;2022-09-29T07:06:12;100.27;;;93.20;;
2035;SDS011;23642;42.658;23.350;2022-09-29T07:08:39;98.93;;;92.13;;
2035;SDS011;23642;42.658;23.350;2022-09-29T07:11:06;99.73;;;92.80;;
2035;SDS011;23642;42.658;23.350;2022-09-29T07:13:34;97.10;;;90.80;;
2035;SDS011;23642;42.658;23.350;2022-09-29T07:16:02;99.60;;;92.80;;
2035;SDS011;23642;42.658;23.350;2022-09-29T07:18:32;94.97;;;88.70;;
2035;SDS011;23642;42.658;23.350;2022-09-29T07:21:01;97.50;;;90.80;;
2035;SDS011;23642;42.658;23.350;2022-09-29T07:23:30;99.87;;;93.07;;
2035;SDS011;23642;42.658;23.350;2022-09-29T07:25:59;97.00;;;90.60;;
2035;SDS011;23642;42.658;23.350;2022-09-29T07:28:27;98.37;;;91.50;;
2035;SDS011;23642;42.658;23.350;2022-09-29T07:30:58;98.30;;;91.60;;
2035;SDS011;23642;42.658;23.350;2022-09-29T07:33:32;99.13;;;92.67;;
2035;SDS011;23642;42.658;23.350;2022-09-29T07:36:00;98.47;;;91.90;;
2035;SDS011;23642;42.658;23.350;2022-09-29T07:38:29;98.87;;;91.67;;
2035;SDS011;23642;42.658;23.350;2022-09-29T07:40:59;98.13;;;91.70;;
2035;SDS011;23642;42.658;23.350;2022-09-29T07:43:27;99.50;;;92.80;;
2035;SDS011;23642;42.658;23.350;2022-09-29T07:45:58;96.77;;;90.40;;
2035;SDS011;23642;42.658;23.350;2022-09-29T07:48:26;98.63;;;92.10;;
2035;SDS011;23642;42.658;23.350;2022-09-29T07:50:58;98.50;;;92.10;;
2035;SDS011;23642;42.658;23.350;2022-09-29T07:53:27;96.27;;;89.70;;
2035;SDS011;23642;42.658;23.350;2022-09-29T07:56:01;95.67;;;89.03;;
2035;SDS011;23642;42.658;23.350;2022-09-29T07:58:29;99.00;;;92.40;;
2035;SDS011;23642;42.658;23.350;2022-09-29T08:00:57;100.67;;;93.43;;
2035;SDS011;23642;42.658;23.350;2022-09-29T08:03:28;99.33;;;92.40;;
2035;SDS011;23642;42.658;23.350;2022-09-29T08:05:58;99.60;;;92.60;;
2035;SDS011;23642;42.658;23.350;2022-09-29T08:08:28;102.57;;;95.67;;
2035;SDS011;23642;42.658;23.350;2022-09-29T08:11:02;100.13;;;93.33;;
2035;SDS011;23642;42.658;23.350;2022-09-29T08:13:30;102.53;;;95.83;;
2035;SDS011;23642;42.658;23.350;2022-09-29T08:16:03;98.60;;;91.80;;
2035;SDS011;23642;42.658;23.350;2022-09-29T08:18:32;99.93;;;93.13;;
2035;SDS011;23642;42.658;23.350;2022-09-29T08:21:02;102.17;;;95.00;;
2035;SDS011;23642;42.658;23.350;2022-09-29T08:23:30;100.40;;;93.87;;
2035;SDS011;23642;42.658;23.350;2022-09-29T08:26:03;98.60;;;92.30;;
2035;SDS011;23642;42.658;23.350;2022-09-29T08:28:32;101.20;;;94.27;;
2035;SDS011;23642;42.658;23.350;2022-09-29T08:31:01;103.47;;;96.17;;
2035;SDS011;23642;42.658;23.350;2022-09-29T08:33:28;103.10;;;96.03;;
2035;SDS011;23642;42.658;23.350;2022-09-29T08:35:55;101.77;;;95.17;;
2035;SDS011;23642;42.658;23.350;2022-09-29T08:38:23;102.93;;;96.13;;
2035;SDS011;23642;42.658;23.350;2022-09-29T08:40:51;101.43;;;95.10;;
2035;SDS011;23642;42.658;23.350;2022-09-29T08:43:22;102.20;;;95.20;;
2035;SDS011;23642;42.658;23.350;2022-09-29T08:45:55;101.63;;;94.40;;
2035;SDS011;23642;42.658;23.350;2022-09-29T08:48:28;103.33;;;96.33;;
2035;SDS011;23642;42.658;23.350;2022-09-29T08:51:01;102.43;;;94.83;;
2035;SDS011;23642;42.658;23.350;2022-09-29T08:53:34;101.33;;;94.13;;
2035;SDS011;23642;42.658;23.350;2022-09-29T08:56:09;99.77;;;92.63;;
2035;SDS011;23642;42.658;23.350;2022-09-29T08:58:44;98.63;;;92.23;;
2035;SDS011;23642;42.658;23.350;2022-09-29T09:01:16;100.60;;;94.10;;
2035;SDS011;23642;42.658;23.350;2022-09-29T09:03:53;98.87;;;92.57;;
2035;SDS011;23642;42.658;23.350;2022-09-29T09:06:40;98.60;;;92.33;;
2035;SDS011;23642;42.658;23.350;2022-09-29T09:09:23;100.17;;;92.67;;
2035;SDS011;23642;42.658;23.350;2022-09-29T09:15:22;101.63;;;94.43;;
2035;SDS011;23642;42.658;23.350;2022-09-29T09:20:58;99.17;;;92.10;;
2035;SDS011;23642;42.658;23.350;2022-09-29T09:23:35;94.63;;;88.37;;
2035;SDS011;23642;42.658;23.350;2022-09-29T09:26:10;97.37;;;91.07;;
2035;SDS011;23642;42.658;23.350;2022-09-29T09:28:40;94.73;;;88.40;;
2035;SDS011;23642;42.658;23.350;2022-09-29T09:31:16;96.63;;;90.23;;
2035;SDS011;23642;42.658;23.350;2022-09-29T09:33:46;97.37;;;90.50;;
2035;SDS011;23642;42.658;23.350;2022-09-29T09:36:16;98.10;;;91.70;;
2035;SDS011;23642;42.658;23.350;2022-09-29T09:38:49;96.00;;;89.80;;
2035;SDS011;23642;42.658;23.350;2022-09-29T09:41:23;97.17;;;90.13;;
2035;SDS011;23642;42.658;23.350;2022-09-29T09:43:55;95.80;;;89.67;;
2035;SDS011;23642;42.658;23.350;2022-09-29T09:46:27;95.30;;;89.30;;
2035;SDS011;23642;42.658;23.350;2022-09-29T09:49:00;92.80;;;86.43;;
2035;SDS011;23642;42.658;23.350;2022-09-29T09:51:38;95.40;;;89.10;;
2035;SDS011;23642;42.658;23.350;2022-09-29T09:54:12;90.70;;;85.00;;
2035;SDS011;23642;42.658;23.350;2022-09-29T09:59:42;94.27;;;88.20;;
2035;SDS011;23642;42.658;23.350;2022-09-29T10:02:22;92.20;;;86.17;;
2035;SDS011;23642;42.658;23.350;2022-09-29T10:04:50;95.27;;;89.27;;
2035;SDS011;23642;42.658;23.350;2022-09-29T10:07:18;94.03;;;88.13;;
2035;SDS011;23642;42.658;23.350;2022-09-29T10:09:47;95.27;;;89.10;;
2035;SDS011;23642;42.658;23.350;2022-09-29T10:12:14;95.63;;;89.60;;
2035;SDS011;23642;42.658;23.350;2022-09-29T10:14:46;93.43;;;87.53;;
2035;SDS011;23642;42.658;23.350;2022-09-29T10:17:18;95.10;;;89.10;;
2035;SDS011;23642;42.658;23.350;2022-09-29T10:19:58;94.23;;;88.20;;
2035;SDS011;23642;42.658;23.350;2022-09-29T10:22:28;94.33;;;88.03;;
2035;SDS011;23642;42.658;23.350;2022-09-29T10:25:04;91.43;;;85.83;;
2035;SDS011;23642;42.658;23.350;2022-09-29T10:27:36;89.67;;;84.17;;
2035;SDS011;23642;42.658;23.350;2022-09-29T10:30:18;94.33;;;88.03;;
2035;SDS011;23642;42.658;23.350;2022-09-29T10:42:14;93.03;;;87.23;;
2035;SDS011;23642;42.658;23.350;2022-09-29T10:44:48;93.00;;;86.90;;
2035;SDS011;23642;42.658;23.350;2022-09-29T10:47:17;93.33;;;87.43;;
2035;SDS011;23642;42.658;23.350;2022-09-29T10:52:29;93.43;;;87.27;;
2035;SDS011;23642;42.658;23.350;2022-09-29T10:55:01;93.43;;;87.40;;
2035;SDS011;23642;42.658;23.350;2022-09-29T10:57:33;92.57;;;86.40;;
2035;SDS011;23642;42.658;23.350;2022-09-29T11:00:26;91.53;;;85.80;;
2035;SDS011;23642;42.658;23.350;2022-09-29T11:03:16;92.67;;;86.73;;
2035;SDS011;23642;42.658;23.350;2022-09-29T11:05:57;92.80;;;86.77;;
2035;SDS011;23642;42.658;23.350;2022-09-29T11:08:32;92.60;;;86.77;;
2035;SDS011;23642;42.658;23.350;2022-09-29T11:11:26;93.97;;;88.20;;
2035;SDS011;23642;42.658;23.350;2022-09-29T11:13:58;92.10;;;86.47;;
2035;SDS011;23642;42.658;23.350;2022-09-29T11:16:28;89.33;;;83.73;;
2035;SDS011;23642;42.658;23.350;2022-09-29T11:21:43;93.03;;;87.23;;
2035;SDS011;23642;42.658;23.350;2022-09-29T11:24:23;88.37;;;82.87;;
2035;SDS011;23642;42.658;23.350;2022-09-29T11:29:57;92.20;;;85.97;;
2035;SDS011;23642;42.658;23.350;2022-09-29T11:32:50;94.00;;;87.20;;
2035;SDS011;23642;42.658;23.350;2022-09-29T11:35:36;91.90;;;86.20;;
2035;SDS011;23642;42.658;23.350;2022-09-29T11:38:54;91.37;;;85.70;;
2035;SDS011;23642;42.658;23.350;2022-09-29T11:41:18;91.97;;;85.07;;
2035;SDS011;23642;42.658;23.350;2022-09-29T11:44:26;91.57;;;85.63;;
2035;SDS011;23642;42.658;23.350;2022-09-29T11:47:21;91.20;;;85.40;;
2035;SDS011;23642;42.658;23.350;2022-09-29T11:50:24;89.97;;;84.37;;
2035;SDS011;23642;42.658;23.350;2022-09-29T11:53:20;91.37;;;85.17;;
2035;SDS011;23642;42.658;23.350;2022-09-29T12:02:15;89.77;;;84.37;;
2035;SDS011;23642;42.658;23.350;2022-09-29T12:05:07;92.17;;;86.20;;
2035;SDS011;23642;42.658;23.350;2022-09-29T12:08:03;88.10;;;82.73;;
2035;SDS011;23642;42.658;23.350;2022-09-29T12:11:29;91.43;;;85.83;;
2035;SDS011;23642;42.658;23.350;2022-09-29T12:14:23;92.53;;;86.83;;
2035;SDS011;23642;42.658;23.350;2022-09-29T12:17:01;89.53;;;83.90;;
2035;SDS011;23642;42.658;23.350;2022-09-29T12:22:54;90.43;;;84.87;;
2035;SDS011;23642;42.658;23.350;2022-09-29T12:25:32;91.03;;;85.03;;
2035;SDS011;23642;42.658;23.350;2022-09-29T12:28:04;90.83;;;85.23;;
2035;SDS011;23642;42.658;23.350;2022-09-29T12:30:42;91.97;;;86.47;;
2035;SDS011;23642;42.658;23.350;2022-09-29T12:33:19;90.27;;;84.77;;
2035;SDS011;23642;42.658;23.350;2022-09-29T12:46:44;91.20;;;85.70;;
2035;SDS011;23642;42.658;23.350;2022-09-29T12:49:18;88.40;;;83.00;;
2035;SDS011;23642;42.658;23.350;2022-09-29T12:51:49;88.73;;;83.33;;
2035;SDS011;23642;42.658;23.350;2022-09-29T12:54:19;91.13;;;85.73;;
2035;SDS011;23642;42.658;23.350;2022-09-29T13:27:34;90.67;;;85.07;;
2035;SDS011;23642;42.658;23.350;2022-09-29T13:46:47;93.43;;;87.83;;
2035;SDS011;23642;42.658;23.350;2022-09-29T13:56:34;94.93;;;89.00;;
2035;SDS011;23642;42.658;23.350;2022-09-29T14:17:57;92.53;;;86.73;;
2035;SDS011;23642;42.658;23.350;2022-09-29T14:20:30;92.40;;;86.70;;
2035;SDS011;23642;42.658;23.350;2022-09-29T14:22:59;92.73;;;87.03;;
2035;SDS011;23642;42.658;23.350;2022-09-29T14:28:26;90.67;;;84.80;;
2035;SDS011;23642;42.658;23.350;2022-09-29T14:31:03;89.23;;;83.63;;
2035;SDS011;23642;42.658;23.350;2022-09-29T14:33:46;91.83;;;85.93;;
2035;SDS011;23642;42.658;23.350;2022-09-29T14:36:17;95.43;;;89.30;;
2035;SDS011;23642;42.658;23.350;2022-09-29T14:38:48;113.90;;;106.00;;
2035;SDS011;23642;42.658;23.350;2022-09-29T14:41:29;110.47;;;102.97;;
2035;SDS011;23642;42.658;23.350;2022-09-29T14:44:04;108.50;;;100.83;;
2035;SDS011;23642;42.658;23.350;2022-09-29T14:46:51;103.03;;;95.40;;
2035;SDS011;23642;42.658;23.350;2022-09-29T14:50:01;98.23;;;91.17;;
2035;SDS011;23642;42.658;23.350;2022-09-29T14:53:02;76.77;;;71.23;;
2035;SDS011;23642;42.658;23.350;2022-09-29T14:55:41;75.47;;;70.03;;
2035;SDS011;23642;42.658;23.350;2022-09-29T14:58:23;71.43;;;66.00;;
2035;SDS011;23642;42.658;23.350;2022-09-29T15:01:05;65.10;;;60.60;;
2035;SDS011;23642;42.658;23.350;2022-09-29T15:03:41;63.33;;;58.80;;
2035;SDS011;23642;42.658;23.350;2022-09-29T15:06:12;58.03;;;54.23;;
2035;SDS011;23642;42.658;23.350;2022-09-29T15:08:42;57.77;;;54.17;;
2035;SDS011;23642;42.658;23.350;2022-09-29T15:11:32;58.53;;;54.50;;
2035;SDS011;23642;42.658;23.350;2022-09-29T15:14:15;58.73;;;54.93;;
2035;SDS011;23642;42.658;23.350;2022-09-29T15:16:53;61.10;;;57.20;;
2035;SDS011;23642;42.658;23.350;2022-09-29T15:22:31;57.50;;;53.70;;
2035;SDS011;23642;42.658;23.350;2022-09-29T15:25:20;58.50;;;54.70;;
2035;SDS011;23642;42.658;23.350;2022-09-29T15:27:54;60.20;;;56.00;;
2035;SDS011;23642;42.658;23.350;2022-09-29T15:30:30;57.57;;;53.50;;
2035;SDS011;23642;42.658;23.350;2022-09-29T15:35:55;61.13;;;56.17;;
2035;SDS011;23642;42.658;23.350;2022-09-29T15:38:27;62.53;;;58.13;;
2035;SDS011;23642;42.658;23.350;2022-09-29T15:41:01;62.17;;;57.67;;
2035;SDS011;23642;42.658;23.350;2022-09-29T15:43:38;65.53;;;60.43;;
2035;SDS011;23642;42.658;23.350;2022-09-29T15:46:14;67.43;;;62.63;;
2035;SDS011;23642;42.658;23.350;2022-09-29T15:49:05;65.27;;;60.60;;
2035;SDS011;23642;42.658;23.350;2022-09-29T15:51:37;61.20;;;57.00;;
2035;SDS011;23642;42.658;23.350;2022-09-29T15:54:05;59.07;;;55.00;;
2035;SDS011;23642;42.658;23.350;2022-09-29T15:56:35;58.90;;;54.77;;
2035;SDS011;23642;42.658;23.350;2022-09-29T15:59:17;57.93;;;53.83;;
2035;SDS011;23642;42.658;23.350;2022-09-29T16:01:46;56.80;;;52.80;;
2035;SDS011;23642;42.658;23.350;2022-09-29T16:04:15;56.67;;;52.77;;
2035;SDS011;23642;42.658;23.350;2022-09-29T16:06:45;57.27;;;53.37;;
2035;SDS011;23642;42.658;23.350;2022-09-29T16:09:15;56.00;;;52.03;;
2035;SDS011;23642;42.658;23.350;2022-09-29T16:11:46;55.90;;;52.20;;
2035;SDS011;23642;42.658;23.350;2022-09-29T16:14:17;56.50;;;52.57;;
2035;SDS011;23642;42.658;23.350;2022-09-29T16:16:50;57.40;;;53.17;;
2035;SDS011;23642;42.658;23.350;2022-09-29T16:19:19;56.10;;;52.20;;
2035;SDS011;23642;42.658;23.350;2022-09-29T16:21:50;55.73;;;52.03;;
2035;SDS011;23642;42.658;23.350;2022-09-29T16:24:20;56.43;;;52.67;;
2035;SDS011;23642;42.658;23.350;2022-09-29T16:26:50;58.63;;;54.73;;
2035;SDS011;23642;42.658;23.350;2022-09-29T16:29:23;58.37;;;54.17;;
2035;SDS011;23642;42.658;23.350;2022-09-29T16:31:54;60.03;;;55.60;;
2035;SDS011;23642;42.658;23.350;2022-09-29T16:34:26;58.80;;;54.70;;
2035;SDS011;23642;42.658;23.350;2022-09-29T16:36:56;60.30;;;56.00;;
2035;SDS011;23642;42.658;23.350;2022-09-29T16:39:26;58.57;;;54.67;;
2035;SDS011;23642;42.658;23.350;2022-09-29T16:41:57;59.40;;;55.23;;
2035;SDS011;23642;42.658;23.350;2022-09-29T16:44:28;59.57;;;55.03;;
2035;SDS011;23642;42.658;23.350;2022-09-29T16:46:59;57.27;;;53.43;;
2035;SDS011;23642;42.658;23.350;2022-09-29T16:49:31;50.07;;;46.63;;
2035;SDS011;23642;42.658;23.350;2022-09-29T16:52:01;46.07;;;42.87;;
2035;SDS011;23642;42.658;23.350;2022-09-29T16:54:42;44.77;;;41.63;;
2035;SDS011;23642;42.658;23.350;2022-09-29T16:57:20;44.27;;;41.70;;
2035;SDS011;23642;42.658;23.350;2022-09-29T16:59:50;42.57;;;40.37;;
2035;SDS011;23642;42.658;23.350;2022-09-29T17:02:21;42.63;;;40.33;;
2035;SDS011;23642;42.658;23.350;2022-09-29T17:04:52;40.50;;;38.27;;
2035;SDS011;23642;42.658;23.350;2022-09-29T17:07:22;42.97;;;40.20;;
2035;SDS011;23642;42.658;23.350;2022-09-29T17:09:54;43.67;;;41.13;;
2035;SDS011;23642;42.658;23.350;2022-09-29T17:12:26;41.97;;;39.67;;